sensor_id;sensor_type;location;lat;lon;timestamp;temperature;humidity
26037;DHT22;13810;48.376;10.944;2024-03-22T00:00:30;5.10;99.90
26037;DHT22;13810;48.376;10.944;2024-03-22T00:01:01;5.00;99.90
26037;DHT22;13810;48.376;10.944;2024-03-22T00:01:31;5.10;99.90
26037;DHT22;13810;48.376;10.944;2024-03-22T00:02:02;5.00;99.90
26037;DHT22;13810;48.376;10.944;2024-03-22T00:02:33;5.00;99.90
26037;DHT22;13810;48.376;10.944;2024-03-22T00:03:04;5.00;99.90
26037;DHT22;13810;48.376;10.944;2024-03-22T00:03:35;5.00;99.90
26037;DHT22;13810;48.376;10.944;2024-03-22T00:04:05;5.00;99.90
26037;DHT22;13810;48.376;10.944;2024-03-22T00:04:37;5.00;99.90
26037;DHT22;13810;48.376;10.944;2024-03-22T00:05:07;5.00;99.90
26037;DHT22;13810;48.376;10.944;2024-03-22T00:05:38;4.90;99.90
26037;DHT22;13810;48.376;10.944;2024-03-22T00:06:09;4.90;99.90
26037;DHT22;13810;48.376;10.944;2024-03-22T00:06:41;4.80;99.90
26037;DHT22;13810;48.376;10.944;2024-03-22T00:07:12;4.80;99.90
26037;DHT22;13810;48.376;10.944;2024-03-22T00:07:42;4.70;99.90
26037;DHT22;13810;48.376;10.944;2024-03-22T00:08:13;4.70;99.90
26037;DHT22;13810;48.376;10.944;2024-03-22T00:08:44;4.60;99.90
26037;DHT22;13810;48.376;10.944;2024-03-22T00:09:15;4.60;99.90
26037;DHT22;13810;48.376;10.944;2024-03-22T00:09:46;4.50;99.90
26037;DHT22;13810;48.376;10.944;2024-03-22T00:10:16;4.50;99.90
26037;DHT22;13810;48.376;10.944;2024-03-22T00:10:47;4.40;99.90
26037;DHT22;13810;48.376;10.944;2024-03-22T00:11:18;4.40;99.90
26037;DHT22;13810;48.376;10.944;2024-03-22T00:11:49;4.30;99.90
26037;DHT22;13810;48.376;10.944;2024-03-22T00:12:19;4.30;99.90
26037;DHT22;13810;48.376;10.944;2024-03-22T00:12:50;4.20;99.90
26037;DHT22;13810;48.376;10.944;2024-03-22T00:13:21;4.20;99.90
26037;DHT22;13810;48.376;10.944;2024-03-22T00:13:51;4.10;99.90
26037;DHT22;13810;48.376;10.944;2024-03-22T00:14:22;4.10;99.90
26037;DHT22;13810;48.376;10.944;2024-03-22T00:14:53;4.10;99.90
26037;DHT22;13810;48.376;10.944;2024-03-22T00:15:24;4.10;99.90
26037;DHT22;13810;48.376;10.944;2024-03-22T00:15:55;4.00;99.90
26037;DHT22;13810;48.376;10.944;2024-03-22T00:16:26;4.00;99.90
26037;DHT22;13810;48.376;10.944;2024-03-22T00:16:56;4.00;99.90
26037;DHT22;13810;48.376;10.944;2024-03-22T00:17:27;3.90;99.90
26037;DHT22;13810;48.376;10.944;2024-03-22T00:17:58;3.90;99.90
26037;DHT22;13810;48.376;10.944;2024-03-22T00:18:28;3.90;99.90
26037;DHT22;13810;48.376;10.944;2024-03-22T00:18:59;3.80;99.90
26037;DHT22;13810;48.376;10.944;2024-03-22T00:19:29;3.80;99.90
26037;DHT22;13810;48.376;10.944;2024-03-22T00:20:00;3.80;99.90
26037;DHT22;13810;48.376;10.944;2024-03-22T00:20:31;3.80;99.90
26037;DHT22;13810;48.376;10.944;2024-03-22T00:21:02;3.80;99.90
26037;DHT22;13810;48.376;10.944;2024-03-22T00:21:33;3.80;99.90
26037;DHT22;13810;48.376;10.944;2024-03-22T00:22:03;3.80;99.90
26037;DHT22;13810;48.376;10.944;2024-03-22T00:22:34;3.90;99.90
26037;DHT22;13810;48.376;10.944;2024-03-22T00:23:05;3.90;99.90
26037;DHT22;13810;48.376;10.944;2024-03-22T00:23:35;3.90;99.90
26037;DHT22;13810;48.376;10.944;2024-03-22T00:24:06;3.90;99.90
26037;DHT22;13810;48.376;10.944;2024-03-22T00:24:37;4.00;99.90
26037;DHT22;13810;48.376;10.944;2024-03-22T00:25:08;4.10;99.90
26037;DHT22;13810;48.376;10.944;2024-03-22T00:25:38;4.10;99.90
26037;DHT22;13810;48.376;10.944;2024-03-22T00:26:09;4.10;99.90
26037;DHT22;13810;48.376;10.944;2024-03-22T00:26:40;4.10;99.90
26037;DHT22;13810;48.376;10.944;2024-03-22T00:27:10;4.10;99.90
26037;DHT22;13810;48.376;10.944;2024-03-22T00:27:42;4.10;99.90
26037;DHT22;13810;48.376;10.944;2024-03-22T00:28:13;4.10;99.90
26037;DHT22;13810;48.376;10.944;2024-03-22T00:28:44;4.10;99.90
26037;DHT22;13810;48.376;10.944;2024-03-22T00:29:14;4.20;99.90
26037;DHT22;13810;48.376;10.944;2024-03-22T00:29:45;4.20;99.90
26037;DHT22;13810;48.376;10.944;2024-03-22T00:30:16;4.20;99.90
26037;DHT22;13810;48.376;10.944;2024-03-22T00:30:46;4.30;99.90
26037;DHT22;13810;48.376;10.944;2024-03-22T00:31:17;4.30;99.90
26037;DHT22;13810;48.376;10.944;2024-03-22T00:31:48;4.30;99.90
26037;DHT22;13810;48.376;10.944;2024-03-22T00:32:18;4.30;99.90
26037;DHT22;13810;48.376;10.944;2024-03-22T00:32:49;4.30;99.90
26037;DHT22;13810;48.376;10.944;2024-03-22T00:33:19;4.30;99.90
26037;DHT22;13810;48.376;10.944;2024-03-22T00:33:50;4.40;99.90
26037;DHT22;13810;48.376;10.944;2024-03-22T00:34:21;4.40;99.90
26037;DHT22;13810;48.376;10.944;2024-03-22T00:34:51;4.40;99.90
26037;DHT22;13810;48.376;10.944;2024-03-22T00:35:22;4.40;99.90
26037;DHT22;13810;48.376;10.944;2024-03-22T00:35:53;4.40;99.90
26037;DHT22;13810;48.376;10.944;2024-03-22T00:36:23;4.40;99.90
26037;DHT22;13810;48.376;10.944;2024-03-22T00:36:54;4.40;99.90
26037;DHT22;13810;48.376;10.944;2024-03-22T00:37:25;4.40;99.90
26037;DHT22;13810;48.376;10.944;2024-03-22T00:37:55;4.40;99.90
26037;DHT22;13810;48.376;10.944;2024-03-22T00:38:26;4.40;99.90
26037;DHT22;13810;48.376;10.944;2024-03-22T00:38:57;4.40;99.90
26037;DHT22;13810;48.376;10.944;2024-03-22T00:39:27;4.40;99.90
26037;DHT22;13810;48.376;10.944;2024-03-22T00:39:58;4.40;99.90
26037;DHT22;13810;48.376;10.944;2024-03-22T00:40:28;4.40;99.90
26037;DHT22;13810;48.376;10.944;2024-03-22T00:40:59;4.40;99.90
26037;DHT22;13810;48.376;10.944;2024-03-22T00:41:30;4.40;99.90
26037;DHT22;13810;48.376;10.944;2024-03-22T00:42:01;4.40;99.90
26037;DHT22;13810;48.376;10.944;2024-03-22T00:42:31;4.40;99.90
26037;DHT22;13810;48.376;10.944;2024-03-22T00:43:02;4.40;99.90
26037;DHT22;13810;48.376;10.944;2024-03-22T00:43:33;4.40;99.90
26037;DHT22;13810;48.376;10.944;2024-03-22T00:44:04;4.30;99.90
26037;DHT22;13810;48.376;10.944;2024-03-22T00:44:34;4.40;99.90
26037;DHT22;13810;48.376;10.944;2024-03-22T00:45:05;4.40;99.90
26037;DHT22;13810;48.376;10.944;2024-03-22T00:45:36;4.40;99.90
26037;DHT22;13810;48.376;10.944;2024-03-22T00:46:07;4.40;99.90
26037;DHT22;13810;48.376;10.944;2024-03-22T00:46:38;4.50;99.90
26037;DHT22;13810;48.376;10.944;2024-03-22T00:47:08;4.50;99.90
26037;DHT22;13810;48.376;10.944;2024-03-22T00:47:39;4.60;99.90
26037;DHT22;13810;48.376;10.944;2024-03-22T00:48:10;4.60;99.90
26037;DHT22;13810;48.376;10.944;2024-03-22T00:48:40;4.60;99.90
26037;DHT22;13810;48.376;10.944;2024-03-22T00:49:11;4.70;99.90
26037;DHT22;13810;48.376;10.944;2024-03-22T00:49:42;4.70;99.90
26037;DHT22;13810;48.376;10.944;2024-03-22T00:50:12;4.70;99.90
26037;DHT22;13810;48.376;10.944;2024-03-22T00:50:43;4.70;99.90
26037;DHT22;13810;48.376;10.944;2024-03-22T00:51:14;4.80;99.90
26037;DHT22;13810;48.376;10.944;2024-03-22T00:51:45;4.80;99.90
26037;DHT22;13810;48.376;10.944;2024-03-22T00:52:17;4.80;99.90
26037;DHT22;13810;48.376;10.944;2024-03-22T00:52:49;4.80;99.90
26037;DHT22;13810;48.376;10.944;2024-03-22T00:53:20;4.80;99.90
26037;DHT22;13810;48.376;10.944;2024-03-22T00:53:51;4.80;99.90
26037;DHT22;13810;48.376;10.944;2024-03-22T00:54:22;4.80;99.90
26037;DHT22;13810;48.376;10.944;2024-03-22T00:54:53;4.80;99.90
26037;DHT22;13810;48.376;10.944;2024-03-22T00:55:23;4.70;99.90
26037;DHT22;13810;48.376;10.944;2024-03-22T00:55:55;4.70;99.90
26037;DHT22;13810;48.376;10.944;2024-03-22T00:56:26;4.70;99.90
26037;DHT22;13810;48.376;10.944;2024-03-22T00:56:57;4.80;99.90
26037;DHT22;13810;48.376;10.944;2024-03-22T00:57:27;4.80;99.90
26037;DHT22;13810;48.376;10.944;2024-03-22T00:57:58;4.80;99.90
26037;DHT22;13810;48.376;10.944;2024-03-22T00:58:29;4.80;99.90
26037;DHT22;13810;48.376;10.944;2024-03-22T00:59:00;4.80;99.90
26037;DHT22;13810;48.376;10.944;2024-03-22T00:59:31;4.80;99.90
26037;DHT22;13810;48.376;10.944;2024-03-22T01:00:01;4.80;99.90
26037;DHT22;13810;48.376;10.944;2024-03-22T01:00:32;4.80;99.90
26037;DHT22;13810;48.376;10.944;2024-03-22T01:01:03;4.80;99.90
26037;DHT22;13810;48.376;10.944;2024-03-22T01:01:34;4.80;99.90
26037;DHT22;13810;48.376;10.944;2024-03-22T01:02:04;4.80;99.90
26037;DHT22;13810;48.376;10.944;2024-03-22T01:02:35;4.80;99.90
26037;DHT22;13810;48.376;10.944;2024-03-22T01:03:06;4.80;99.90
26037;DHT22;13810;48.376;10.944;2024-03-22T01:03:36;4.80;99.90
26037;DHT22;13810;48.376;10.944;2024-03-22T01:04:07;4.80;99.90
26037;DHT22;13810;48.376;10.944;2024-03-22T01:04:39;4.80;99.90
26037;DHT22;13810;48.376;10.944;2024-03-22T01:05:10;4.80;99.90
26037;DHT22;13810;48.376;10.944;2024-03-22T01:05:41;4.80;99.90
26037;DHT22;13810;48.376;10.944;2024-03-22T01:06:12;4.80;99.90
26037;DHT22;13810;48.376;10.944;2024-03-22T01:06:43;4.80;99.90
26037;DHT22;13810;48.376;10.944;2024-03-22T01:07:14;4.80;99.90
26037;DHT22;13810;48.376;10.944;2024-03-22T01:07:44;4.80;99.90
26037;DHT22;13810;48.376;10.944;2024-03-22T01:08:15;4.80;99.90
26037;DHT22;13810;48.376;10.944;2024-03-22T01:08:45;4.80;99.90
26037;DHT22;13810;48.376;10.944;2024-03-22T01:09:16;4.80;99.90
26037;DHT22;13810;48.376;10.944;2024-03-22T01:09:47;4.80;99.90
26037;DHT22;13810;48.376;10.944;2024-03-22T01:10:17;4.80;99.90
26037;DHT22;13810;48.376;10.944;2024-03-22T01:10:49;4.80;99.90
26037;DHT22;13810;48.376;10.944;2024-03-22T01:11:19;4.80;99.90
26037;DHT22;13810;48.376;10.944;2024-03-22T01:11:51;4.80;99.90
26037;DHT22;13810;48.376;10.944;2024-03-22T01:12:21;4.80;99.90
26037;DHT22;13810;48.376;10.944;2024-03-22T01:12:52;4.80;99.90
26037;DHT22;13810;48.376;10.944;2024-03-22T01:13:23;4.80;99.90
26037;DHT22;13810;48.376;10.944;2024-03-22T01:13:53;4.80;99.90
26037;DHT22;13810;48.376;10.944;2024-03-22T01:14:24;4.90;99.90
26037;DHT22;13810;48.376;10.944;2024-03-22T01:14:54;4.90;99.90
26037;DHT22;13810;48.376;10.944;2024-03-22T01:15:25;4.90;99.90
26037;DHT22;13810;48.376;10.944;2024-03-22T01:15:56;4.90;99.90
26037;DHT22;13810;48.376;10.944;2024-03-22T01:16:26;4.90;99.90
26037;DHT22;13810;48.376;10.944;2024-03-22T01:16:57;4.90;99.90
26037;DHT22;13810;48.376;10.944;2024-03-22T01:17:28;4.90;99.90
26037;DHT22;13810;48.376;10.944;2024-03-22T01:17:58;4.80;99.90
26037;DHT22;13810;48.376;10.944;2024-03-22T01:18:29;4.80;99.90
26037;DHT22;13810;48.376;10.944;2024-03-22T01:19:00;4.80;99.90
26037;DHT22;13810;48.376;10.944;2024-03-22T01:19:30;4.80;99.90
26037;DHT22;13810;48.376;10.944;2024-03-22T01:20:01;4.80;99.90
26037;DHT22;13810;48.376;10.944;2024-03-22T01:20:31;4.80;99.90
26037;DHT22;13810;48.376;10.944;2024-03-22T01:21:02;4.90;99.90
26037;DHT22;13810;48.376;10.944;2024-03-22T01:21:33;4.90;99.90
26037;DHT22;13810;48.376;10.944;2024-03-22T01:22:04;4.90;99.90
26037;DHT22;13810;48.376;10.944;2024-03-22T01:22:35;4.90;99.90
26037;DHT22;13810;48.376;10.944;2024-03-22T01:23:05;4.90;99.90
26037;DHT22;13810;48.376;10.944;2024-03-22T01:23:36;4.90;99.90
26037;DHT22;13810;48.376;10.944;2024-03-22T01:24:07;4.90;99.90
26037;DHT22;13810;48.376;10.944;2024-03-22T01:24:37;4.90;99.90
26037;DHT22;13810;48.376;10.944;2024-03-22T01:25:08;4.90;99.90
26037;DHT22;13810;48.376;10.944;2024-03-22T01:25:40;4.90;99.90
26037;DHT22;13810;48.376;10.944;2024-03-22T01:26:10;4.90;99.90
26037;DHT22;13810;48.376;10.944;2024-03-22T01:26:41;4.90;99.90
26037;DHT22;13810;48.376;10.944;2024-03-22T01:27:12;4.80;99.90
26037;DHT22;13810;48.376;10.944;2024-03-22T01:27:43;4.80;99.90
26037;DHT22;13810;48.376;10.944;2024-03-22T01:28:14;4.80;99.90
26037;DHT22;13810;48.376;10.944;2024-03-22T01:28:46;4.80;99.90
26037;DHT22;13810;48.376;10.944;2024-03-22T01:29:17;4.80;99.90
26037;DHT22;13810;48.376;10.944;2024-03-22T01:29:47;4.80;99.90
26037;DHT22;13810;48.376;10.944;2024-03-22T01:30:18;4.80;99.90
26037;DHT22;13810;48.376;10.944;2024-03-22T01:30:49;4.80;99.90
26037;DHT22;13810;48.376;10.944;2024-03-22T01:31:19;4.80;99.90
26037;DHT22;13810;48.376;10.944;2024-03-22T01:31:50;4.90;99.90
26037;DHT22;13810;48.376;10.944;2024-03-22T01:32:21;4.90;99.90
26037;DHT22;13810;48.376;10.944;2024-03-22T01:32:52;4.80;99.90
26037;DHT22;13810;48.376;10.944;2024-03-22T01:33:22;4.80;99.90
26037;DHT22;13810;48.376;10.944;2024-03-22T01:33:53;4.80;99.90
26037;DHT22;13810;48.376;10.944;2024-03-22T01:34:24;4.80;99.90
26037;DHT22;13810;48.376;10.944;2024-03-22T01:34:54;4.80;99.90
26037;DHT22;13810;48.376;10.944;2024-03-22T01:35:25;4.80;99.90
26037;DHT22;13810;48.376;10.944;2024-03-22T01:35:56;4.80;99.90
26037;DHT22;13810;48.376;10.944;2024-03-22T01:36:26;4.90;99.90
26037;DHT22;13810;48.376;10.944;2024-03-22T01:36:58;4.90;99.90
26037;DHT22;13810;48.376;10.944;2024-03-22T01:37:28;4.90;99.90
26037;DHT22;13810;48.376;10.944;2024-03-22T01:37:59;4.90;99.90
26037;DHT22;13810;48.376;10.944;2024-03-22T01:38:30;4.90;99.90
26037;DHT22;13810;48.376;10.944;2024-03-22T01:39:00;4.90;99.90
26037;DHT22;13810;48.376;10.944;2024-03-22T01:39:31;4.90;99.90
26037;DHT22;13810;48.376;10.944;2024-03-22T01:40:03;4.90;99.90
26037;DHT22;13810;48.376;10.944;2024-03-22T01:40:35;4.90;99.90
26037;DHT22;13810;48.376;10.944;2024-03-22T01:41:06;4.90;99.90
26037;DHT22;13810;48.376;10.944;2024-03-22T01:41:36;4.90;99.90
26037;DHT22;13810;48.376;10.944;2024-03-22T01:42:07;4.90;99.90
26037;DHT22;13810;48.376;10.944;2024-03-22T01:42:38;4.90;99.90
26037;DHT22;13810;48.376;10.944;2024-03-22T01:43:08;4.90;99.90
26037;DHT22;13810;48.376;10.944;2024-03-22T01:43:39;4.90;99.90
26037;DHT22;13810;48.376;10.944;2024-03-22T01:44:09;4.90;99.90
26037;DHT22;13810;48.376;10.944;2024-03-22T01:44:42;4.90;99.90
26037;DHT22;13810;48.376;10.944;2024-03-22T01:45:14;4.90;99.90
26037;DHT22;13810;48.376;10.944;2024-03-22T01:45:45;4.90;99.90
26037;DHT22;13810;48.376;10.944;2024-03-22T01:46:15;4.90;99.90
26037;DHT22;13810;48.376;10.944;2024-03-22T01:46:47;4.90;99.90
26037;DHT22;13810;48.376;10.944;2024-03-22T01:47:18;4.90;99.90
26037;DHT22;13810;48.376;10.944;2024-03-22T01:47:49;4.90;99.90
26037;DHT22;13810;48.376;10.944;2024-03-22T01:48:20;4.90;99.90
26037;DHT22;13810;48.376;10.944;2024-03-22T01:48:51;4.90;99.90
26037;DHT22;13810;48.376;10.944;2024-03-22T01:49:22;4.90;99.90
26037;DHT22;13810;48.376;10.944;2024-03-22T01:49:55;4.90;99.90
26037;DHT22;13810;48.376;10.944;2024-03-22T01:50:26;4.90;99.90
26037;DHT22;13810;48.376;10.944;2024-03-22T01:50:57;4.90;99.90
26037;DHT22;13810;48.376;10.944;2024-03-22T01:51:28;4.80;99.90
26037;DHT22;13810;48.376;10.944;2024-03-22T01:51:58;4.80;99.90
26037;DHT22;13810;48.376;10.944;2024-03-22T01:52:29;4.80;99.90
26037;DHT22;13810;48.376;10.944;2024-03-22T01:53:01;4.80;99.90
26037;DHT22;13810;48.376;10.944;2024-03-22T01:53:32;4.80;99.90
26037;DHT22;13810;48.376;10.944;2024-03-22T01:54:04;4.70;99.90
26037;DHT22;13810;48.376;10.944;2024-03-22T01:54:38;4.70;99.90
26037;DHT22;13810;48.376;10.944;2024-03-22T01:55:09;4.70;99.90
26037;DHT22;13810;48.376;10.944;2024-03-22T01:55:40;4.70;99.90
26037;DHT22;13810;48.376;10.944;2024-03-22T01:56:11;4.70;99.90
26037;DHT22;13810;48.376;10.944;2024-03-22T01:56:42;4.70;99.90
26037;DHT22;13810;48.376;10.944;2024-03-22T01:57:13;4.70;99.90
26037;DHT22;13810;48.376;10.944;2024-03-22T01:57:43;4.70;99.90
26037;DHT22;13810;48.376;10.944;2024-03-22T01:58:15;4.70;99.90
26037;DHT22;13810;48.376;10.944;2024-03-22T01:58:46;4.70;99.90
26037;DHT22;13810;48.376;10.944;2024-03-22T01:59:18;4.70;99.90
26037;DHT22;13810;48.376;10.944;2024-03-22T01:59:49;4.70;99.90
26037;DHT22;13810;48.376;10.944;2024-03-22T02:00:22;4.70;99.90
26037;DHT22;13810;48.376;10.944;2024-03-22T02:00:52;4.70;99.90
26037;DHT22;13810;48.376;10.944;2024-03-22T02:01:24;4.70;99.90
26037;DHT22;13810;48.376;10.944;2024-03-22T02:01:54;4.70;99.90
26037;DHT22;13810;48.376;10.944;2024-03-22T02:02:25;4.70;99.90
26037;DHT22;13810;48.376;10.944;2024-03-22T02:02:56;4.70;99.90
26037;DHT22;13810;48.376;10.944;2024-03-22T02:03:26;4.70;99.90
26037;DHT22;13810;48.376;10.944;2024-03-22T02:03:57;4.70;99.90
26037;DHT22;13810;48.376;10.944;2024-03-22T02:04:28;4.70;99.90
26037;DHT22;13810;48.376;10.944;2024-03-22T02:04:58;4.70;99.90
26037;DHT22;13810;48.376;10.944;2024-03-22T02:05:29;4.60;99.90
26037;DHT22;13810;48.376;10.944;2024-03-22T02:06:00;4.70;99.90
26037;DHT22;13810;48.376;10.944;2024-03-22T02:06:30;4.60;99.90
26037;DHT22;13810;48.376;10.944;2024-03-22T02:07:01;4.60;99.90
26037;DHT22;13810;48.376;10.944;2024-03-22T02:07:32;4.60;99.90
26037;DHT22;13810;48.376;10.944;2024-03-22T02:08:02;4.60;99.90
26037;DHT22;13810;48.376;10.944;2024-03-22T02:08:33;4.60;99.90
26037;DHT22;13810;48.376;10.944;2024-03-22T02:09:04;4.60;99.90
26037;DHT22;13810;48.376;10.944;2024-03-22T02:09:35;4.60;99.90
26037;DHT22;13810;48.376;10.944;2024-03-22T02:10:07;4.60;99.90
26037;DHT22;13810;48.376;10.944;2024-03-22T02:10:38;4.60;99.90
26037;DHT22;13810;48.376;10.944;2024-03-22T02:11:09;4.50;99.90
26037;DHT22;13810;48.376;10.944;2024-03-22T02:11:40;4.50;99.90
26037;DHT22;13810;48.376;10.944;2024-03-22T02:12:11;4.50;99.90
26037;DHT22;13810;48.376;10.944;2024-03-22T02:12:41;4.50;99.90
26037;DHT22;13810;48.376;10.944;2024-03-22T02:13:12;4.50;99.90
26037;DHT22;13810;48.376;10.944;2024-03-22T02:13:43;4.50;99.90
26037;DHT22;13810;48.376;10.944;2024-03-22T02:14:13;4.50;99.90
26037;DHT22;13810;48.376;10.944;2024-03-22T02:14:44;4.50;99.90
26037;DHT22;13810;48.376;10.944;2024-03-22T02:15:15;4.50;99.90
26037;DHT22;13810;48.376;10.944;2024-03-22T02:15:45;4.50;99.90
26037;DHT22;13810;48.376;10.944;2024-03-22T02:16:16;4.50;99.90
26037;DHT22;13810;48.376;10.944;2024-03-22T02:16:47;4.50;99.90
26037;DHT22;13810;48.376;10.944;2024-03-22T02:17:18;4.50;99.90
26037;DHT22;13810;48.376;10.944;2024-03-22T02:17:48;4.50;99.90
26037;DHT22;13810;48.376;10.944;2024-03-22T02:18:19;4.50;99.90
26037;DHT22;13810;48.376;10.944;2024-03-22T02:18:49;4.50;99.90
26037;DHT22;13810;48.376;10.944;2024-03-22T02:19:20;4.50;99.90
26037;DHT22;13810;48.376;10.944;2024-03-22T02:19:51;4.50;99.90
26037;DHT22;13810;48.376;10.944;2024-03-22T02:20:24;4.50;99.90
26037;DHT22;13810;48.376;10.944;2024-03-22T02:20:56;4.50;99.90
26037;DHT22;13810;48.376;10.944;2024-03-22T02:21:27;4.50;99.90
26037;DHT22;13810;48.376;10.944;2024-03-22T02:21:58;4.50;99.90
26037;DHT22;13810;48.376;10.944;2024-03-22T02:22:28;4.50;99.90
26037;DHT22;13810;48.376;10.944;2024-03-22T02:22:59;4.60;99.90
26037;DHT22;13810;48.376;10.944;2024-03-22T02:23:37;4.60;99.90
26037;DHT22;13810;48.376;10.944;2024-03-22T02:24:07;4.50;99.90
26037;DHT22;13810;48.376;10.944;2024-03-22T02:24:38;4.50;99.90
26037;DHT22;13810;48.376;10.944;2024-03-22T02:25:09;4.50;99.90
26037;DHT22;13810;48.376;10.944;2024-03-22T02:25:39;4.50;99.90
26037;DHT22;13810;48.376;10.944;2024-03-22T02:26:10;4.50;99.90
26037;DHT22;13810;48.376;10.944;2024-03-22T02:26:41;4.50;99.90
26037;DHT22;13810;48.376;10.944;2024-03-22T02:27:11;4.50;99.90
26037;DHT22;13810;48.376;10.944;2024-03-22T02:27:42;4.40;99.90
26037;DHT22;13810;48.376;10.944;2024-03-22T02:28:13;4.40;99.90
26037;DHT22;13810;48.376;10.944;2024-03-22T02:28:44;4.40;99.90
26037;DHT22;13810;48.376;10.944;2024-03-22T02:29:14;4.40;99.90
26037;DHT22;13810;48.376;10.944;2024-03-22T02:29:45;4.30;99.90
26037;DHT22;13810;48.376;10.944;2024-03-22T02:30:17;4.30;99.90
26037;DHT22;13810;48.376;10.944;2024-03-22T02:30:47;4.30;99.90
26037;DHT22;13810;48.376;10.944;2024-03-22T02:31:18;4.30;99.90
26037;DHT22;13810;48.376;10.944;2024-03-22T02:31:50;4.40;99.90
26037;DHT22;13810;48.376;10.944;2024-03-22T02:32:21;4.40;99.90
26037;DHT22;13810;48.376;10.944;2024-03-22T02:32:52;4.40;99.90
26037;DHT22;13810;48.376;10.944;2024-03-22T02:33:22;4.40;99.90
26037;DHT22;13810;48.376;10.944;2024-03-22T02:33:53;4.40;99.90
26037;DHT22;13810;48.376;10.944;2024-03-22T02:34:24;4.40;99.90
26037;DHT22;13810;48.376;10.944;2024-03-22T02:34:55;4.40;99.90
26037;DHT22;13810;48.376;10.944;2024-03-22T02:35:25;4.30;99.90
26037;DHT22;13810;48.376;10.944;2024-03-22T02:35:56;4.30;99.90
26037;DHT22;13810;48.376;10.944;2024-03-22T02:36:27;4.30;99.90
26037;DHT22;13810;48.376;10.944;2024-03-22T02:36:58;4.30;99.90
26037;DHT22;13810;48.376;10.944;2024-03-22T02:37:29;4.30;99.90
26037;DHT22;13810;48.376;10.944;2024-03-22T02:37:59;4.20;99.90
26037;DHT22;13810;48.376;10.944;2024-03-22T02:38:30;4.20;99.90
26037;DHT22;13810;48.376;10.944;2024-03-22T02:39:01;4.20;99.90
26037;DHT22;13810;48.376;10.944;2024-03-22T02:39:31;4.10;99.90
26037;DHT22;13810;48.376;10.944;2024-03-22T02:40:02;4.10;99.90
26037;DHT22;13810;48.376;10.944;2024-03-22T02:40:33;4.10;99.90
26037;DHT22;13810;48.376;10.944;2024-03-22T02:41:03;4.10;99.90
26037;DHT22;13810;48.376;10.944;2024-03-22T02:41:34;4.00;99.90
26037;DHT22;13810;48.376;10.944;2024-03-22T02:42:05;4.00;99.90
26037;DHT22;13810;48.376;10.944;2024-03-22T02:42:35;4.10;99.90
26037;DHT22;13810;48.376;10.944;2024-03-22T02:43:06;4.00;99.90
26037;DHT22;13810;48.376;10.944;2024-03-22T02:43:37;4.00;99.90
26037;DHT22;13810;48.376;10.944;2024-03-22T02:44:07;4.00;99.90
26037;DHT22;13810;48.376;10.944;2024-03-22T02:44:38;4.00;99.90
26037;DHT22;13810;48.376;10.944;2024-03-22T02:45:13;3.90;99.90
26037;DHT22;13810;48.376;10.944;2024-03-22T02:45:43;3.90;99.90
26037;DHT22;13810;48.376;10.944;2024-03-22T02:46:14;4.00;99.90
26037;DHT22;13810;48.376;10.944;2024-03-22T02:46:45;4.00;99.90
26037;DHT22;13810;48.376;10.944;2024-03-22T02:47:16;4.00;99.90
26037;DHT22;13810;48.376;10.944;2024-03-22T02:47:46;3.90;99.90
26037;DHT22;13810;48.376;10.944;2024-03-22T02:48:17;3.90;99.90
26037;DHT22;13810;48.376;10.944;2024-03-22T02:48:47;3.90;99.90
26037;DHT22;13810;48.376;10.944;2024-03-22T02:49:18;3.90;99.90
26037;DHT22;13810;48.376;10.944;2024-03-22T02:49:49;3.90;99.90
26037;DHT22;13810;48.376;10.944;2024-03-22T02:50:19;3.90;99.90
26037;DHT22;13810;48.376;10.944;2024-03-22T02:50:55;3.90;99.90
26037;DHT22;13810;48.376;10.944;2024-03-22T02:51:26;3.90;99.90
26037;DHT22;13810;48.376;10.944;2024-03-22T02:51:56;3.90;99.90
26037;DHT22;13810;48.376;10.944;2024-03-22T02:52:27;3.90;99.90
26037;DHT22;13810;48.376;10.944;2024-03-22T02:52:58;3.90;99.90
26037;DHT22;13810;48.376;10.944;2024-03-22T02:53:28;3.90;99.90
26037;DHT22;13810;48.376;10.944;2024-03-22T02:53:59;3.90;99.90
26037;DHT22;13810;48.376;10.944;2024-03-22T02:54:29;3.90;99.90
26037;DHT22;13810;48.376;10.944;2024-03-22T02:55:00;3.90;99.90
26037;DHT22;13810;48.376;10.944;2024-03-22T02:55:37;3.90;99.90
26037;DHT22;13810;48.376;10.944;2024-03-22T02:56:08;4.00;99.90
26037;DHT22;13810;48.376;10.944;2024-03-22T02:56:39;4.00;99.90
26037;DHT22;13810;48.376;10.944;2024-03-22T02:57:10;4.00;99.90
26037;DHT22;13810;48.376;10.944;2024-03-22T02:57:41;4.00;99.90
26037;DHT22;13810;48.376;10.944;2024-03-22T02:58:12;4.10;99.90
26037;DHT22;13810;48.376;10.944;2024-03-22T02:58:42;4.10;99.90
26037;DHT22;13810;48.376;10.944;2024-03-22T02:59:13;4.10;99.90
26037;DHT22;13810;48.376;10.944;2024-03-22T02:59:44;4.20;99.90
26037;DHT22;13810;48.376;10.944;2024-03-22T03:00:14;4.20;99.90
26037;DHT22;13810;48.376;10.944;2024-03-22T03:00:45;4.20;99.90
26037;DHT22;13810;48.376;10.944;2024-03-22T03:01:16;4.20;99.90
26037;DHT22;13810;48.376;10.944;2024-03-22T03:01:46;4.20;99.90
26037;DHT22;13810;48.376;10.944;2024-03-22T03:02:17;4.30;99.90
26037;DHT22;13810;48.376;10.944;2024-03-22T03:02:48;4.30;99.90
26037;DHT22;13810;48.376;10.944;2024-03-22T03:03:18;4.30;99.90
26037;DHT22;13810;48.376;10.944;2024-03-22T03:03:49;4.30;99.90
26037;DHT22;13810;48.376;10.944;2024-03-22T03:04:19;4.30;99.90
26037;DHT22;13810;48.376;10.944;2024-03-22T03:04:50;4.40;99.90
26037;DHT22;13810;48.376;10.944;2024-03-22T03:05:21;4.40;99.90
26037;DHT22;13810;48.376;10.944;2024-03-22T03:05:53;4.30;99.90
26037;DHT22;13810;48.376;10.944;2024-03-22T03:06:24;4.40;99.90
26037;DHT22;13810;48.376;10.944;2024-03-22T03:06:55;4.30;99.90
26037;DHT22;13810;48.376;10.944;2024-03-22T03:07:26;4.30;99.90
26037;DHT22;13810;48.376;10.944;2024-03-22T03:07:58;4.30;99.90
26037;DHT22;13810;48.376;10.944;2024-03-22T03:08:29;4.30;99.90
26037;DHT22;13810;48.376;10.944;2024-03-22T03:08:59;4.30;99.90
26037;DHT22;13810;48.376;10.944;2024-03-22T03:09:30;4.30;99.90
26037;DHT22;13810;48.376;10.944;2024-03-22T03:10:00;4.30;99.90
26037;DHT22;13810;48.376;10.944;2024-03-22T03:10:31;4.20;99.90
26037;DHT22;13810;48.376;10.944;2024-03-22T03:11:02;4.20;99.90
26037;DHT22;13810;48.376;10.944;2024-03-22T03:11:32;4.20;99.90
26037;DHT22;13810;48.376;10.944;2024-03-22T03:12:03;4.20;99.90
26037;DHT22;13810;48.376;10.944;2024-03-22T03:12:34;4.20;99.90
26037;DHT22;13810;48.376;10.944;2024-03-22T03:13:04;4.20;99.90
26037;DHT22;13810;48.376;10.944;2024-03-22T03:13:35;4.20;99.90
26037;DHT22;13810;48.376;10.944;2024-03-22T03:14:06;4.20;99.90
26037;DHT22;13810;48.376;10.944;2024-03-22T03:14:37;4.10;99.90
26037;DHT22;13810;48.376;10.944;2024-03-22T03:15:07;4.10;99.90